sensor_id;sensor_type;location;lat;lon;timestamp;P1;durP1;ratioP1;P2;durP2;ratioP2
4636;SDS011;2331;48.806;9.140;2022-07-29T00:01:46;7.00;;;4.33;;
4636;SDS011;2331;48.806;9.140;2022-07-29T00:04:13;7.73;;;4.33;;
4636;SDS011;2331;48.806;9.140;2022-07-29T00:06:40;8.00;;;5.10;;
4636;SDS011;2331;48.806;9.140;2022-07-29T00:09:08;7.00;;;4.80;;
4636;SDS011;2331;48.806;9.140;2022-07-29T00:11:35;5.77;;;4.30;;
4636;SDS011;2331;48.806;9.140;2022-07-29T00:14:01;7.50;;;4.20;;
4636;SDS011;2331;48.806;9.140;2022-07-29T00:16:28;5.67;;;4.50;;
4636;SDS011;2331;48.806;9.140;2022-07-29T00:18:55;7.10;;;4.57;;
4636;SDS011;2331;48.806;9.140;2022-07-29T00:21:22;6.47;;;4.60;;
4636;SDS011;2331;48.806;9.140;2022-07-29T00:23:49;6.10;;;4.60;;
4636;SDS011;2331;48.806;9.140;2022-07-29T00:26:17;7.70;;;4.60;;
4636;SDS011;2331;48.806;9.140;2022-07-29T00:28:44;6.07;;;4.40;;
4636;SDS011;2331;48.806;9.140;2022-07-29T00:31:11;4.90;;;3.93;;
4636;SDS011;2331;48.806;9.140;2022-07-29T00:33:38;5.80;;;4.30;;
4636;SDS011;2331;48.806;9.140;2022-07-29T00:36:05;6.90;;;4.73;;
4636;SDS011;2331;48.806;9.140;2022-07-29T00:38:31;6.60;;;4.50;;
4636;SDS011;2331;48.806;9.140;2022-07-29T00:40:57;7.97;;;4.80;;
4636;SDS011;2331;48.806;9.140;2022-07-29T00:43:25;6.80;;;4.50;;
4636;SDS011;2331;48.806;9.140;2022-07-29T00:45:52;6.67;;;4.57;;
4636;SDS011;2331;48.806;9.140;2022-07-29T00:48:19;5.70;;;4.30;;
4636;SDS011;2331;48.806;9.140;2022-07-29T00:50:45;6.23;;;3.97;;
4636;SDS011;2331;48.806;9.140;2022-07-29T00:53:12;6.60;;;4.57;;
4636;SDS011;2331;48.806;9.140;2022-07-29T00:55:39;7.10;;;4.50;;
4636;SDS011;2331;48.806;9.140;2022-07-29T00:58:06;7.20;;;4.13;;
4636;SDS011;2331;48.806;9.140;2022-07-29T01:00:34;6.10;;;4.50;;
4636;SDS011;2331;48.806;9.140;2022-07-29T01:03:01;7.13;;;4.00;;
4636;SDS011;2331;48.806;9.140;2022-07-29T01:05:28;6.03;;;4.37;;
4636;SDS011;2331;48.806;9.140;2022-07-29T01:07:56;7.20;;;4.47;;
4636;SDS011;2331;48.806;9.140;2022-07-29T01:10:24;5.07;;;4.10;;
4636;SDS011;2331;48.806;9.140;2022-07-29T01:12:53;5.43;;;4.30;;
4636;SDS011;2331;48.806;9.140;2022-07-29T01:15:22;8.00;;;4.33;;
4636;SDS011;2331;48.806;9.140;2022-07-29T01:17:54;6.10;;;4.10;;
4636;SDS011;2331;48.806;9.140;2022-07-29T01:20:29;6.17;;;3.90;;
4636;SDS011;2331;48.806;9.140;2022-07-29T01:23:15;6.80;;;4.27;;
4636;SDS011;2331;48.806;9.140;2022-07-29T01:25:58;5.53;;;3.93;;
4636;SDS011;2331;48.806;9.140;2022-07-29T01:28:58;6.80;;;4.00;;
4636;SDS011;2331;48.806;9.140;2022-07-29T01:31:31;6.30;;;4.00;;
4636;SDS011;2331;48.806;9.140;2022-07-29T01:34:03;5.73;;;4.23;;
4636;SDS011;2331;48.806;9.140;2022-07-29T01:36:33;6.90;;;4.20;;
4636;SDS011;2331;48.806;9.140;2022-07-29T01:39:05;5.10;;;3.60;;
4636;SDS011;2331;48.806;9.140;2022-07-29T01:41:35;6.10;;;4.13;;
4636;SDS011;2331;48.806;9.140;2022-07-29T01:44:10;5.17;;;3.90;;
4636;SDS011;2331;48.806;9.140;2022-07-29T01:46:41;7.97;;;3.90;;
4636;SDS011;2331;48.806;9.140;2022-07-29T01:49:15;5.53;;;4.07;;
4636;SDS011;2331;48.806;9.140;2022-07-29T01:51:45;6.70;;;4.77;;
4636;SDS011;2331;48.806;9.140;2022-07-29T01:54:16;5.47;;;3.60;;
4636;SDS011;2331;48.806;9.140;2022-07-29T01:56:47;4.30;;;3.30;;
4636;SDS011;2331;48.806;9.140;2022-07-29T01:59:18;7.43;;;4.10;;
4636;SDS011;2331;48.806;9.140;2022-07-29T02:01:46;5.63;;;3.90;;
4636;SDS011;2331;48.806;9.140;2022-07-29T02:04:16;7.27;;;4.07;;
4636;SDS011;2331;48.806;9.140;2022-07-29T02:06:45;6.07;;;4.23;;
4636;SDS011;2331;48.806;9.140;2022-07-29T02:09:15;8.40;;;4.03;;
4636;SDS011;2331;48.806;9.140;2022-07-29T02:11:44;5.07;;;3.57;;
4636;SDS011;2331;48.806;9.140;2022-07-29T02:14:15;4.60;;;3.40;;
4636;SDS011;2331;48.806;9.140;2022-07-29T02:16:47;4.10;;;2.43;;
4636;SDS011;2331;48.806;9.140;2022-07-29T02:19:17;3.70;;;2.90;;
4636;SDS011;2331;48.806;9.140;2022-07-29T02:21:47;4.43;;;3.50;;
4636;SDS011;2331;48.806;9.140;2022-07-29T02:24:14;4.37;;;3.30;;
4636;SDS011;2331;48.806;9.140;2022-07-29T02:26:44;5.77;;;3.70;;
4636;SDS011;2331;48.806;9.140;2022-07-29T02:29:11;4.93;;;3.43;;
4636;SDS011;2331;48.806;9.140;2022-07-29T02:31:42;5.07;;;3.30;;
4636;SDS011;2331;48.806;9.140;2022-07-29T02:34:12;3.90;;;3.10;;
4636;SDS011;2331;48.806;9.140;2022-07-29T02:36:41;4.23;;;3.30;;
4636;SDS011;2331;48.806;9.140;2022-07-29T02:39:10;4.00;;;2.97;;
4636;SDS011;2331;48.806;9.140;2022-07-29T02:41:40;3.80;;;3.10;;
4636;SDS011;2331;48.806;9.140;2022-07-29T02:44:10;7.50;;;3.07;;
4636;SDS011;2331;48.806;9.140;2022-07-29T02:46:45;4.30;;;2.97;;
4636;SDS011;2331;48.806;9.140;2022-07-29T02:49:17;4.70;;;3.00;;
4636;SDS011;2331;48.806;9.140;2022-07-29T02:51:53;5.73;;;3.17;;
4636;SDS011;2331;48.806;9.140;2022-07-29T02:54:23;3.73;;;3.03;;
4636;SDS011;2331;48.806;9.140;2022-07-29T02:56:55;6.53;;;3.40;;
4636;SDS011;2331;48.806;9.140;2022-07-29T02:59:25;4.43;;;3.33;;
4636;SDS011;2331;48.806;9.140;2022-07-29T03:01:55;4.30;;;3.50;;
4636;SDS011;2331;48.806;9.140;2022-07-29T03:04:24;4.93;;;3.70;;
4636;SDS011;2331;48.806;9.140;2022-07-29T03:06:53;6.03;;;3.70;;
4636;SDS011;2331;48.806;9.140;2022-07-29T03:09:21;5.00;;;3.57;;
4636;SDS011;2331;48.806;9.140;2022-07-29T03:11:49;5.00;;;3.30;;
4636;SDS011;2331;48.806;9.140;2022-07-29T03:14:16;3.77;;;3.17;;
4636;SDS011;2331;48.806;9.140;2022-07-29T03:16:44;4.80;;;2.70;;
4636;SDS011;2331;48.806;9.140;2022-07-29T03:19:13;5.30;;;3.73;;
4636;SDS011;2331;48.806;9.140;2022-07-29T03:21:40;5.33;;;3.47;;
4636;SDS011;2331;48.806;9.140;2022-07-29T03:24:07;5.47;;;3.20;;
4636;SDS011;2331;48.806;9.140;2022-07-29T03:26:33;5.70;;;3.40;;
4636;SDS011;2331;48.806;9.140;2022-07-29T03:29:00;4.10;;;3.30;;
4636;SDS011;2331;48.806;9.140;2022-07-29T03:31:27;7.00;;;3.70;;
4636;SDS011;2331;48.806;9.140;2022-07-29T03:33:54;5.30;;;3.47;;
4636;SDS011;2331;48.806;9.140;2022-07-29T03:36:22;4.03;;;2.80;;
4636;SDS011;2331;48.806;9.140;2022-07-29T03:38:49;4.50;;;3.00;;
4636;SDS011;2331;48.806;9.140;2022-07-29T03:41:16;5.20;;;3.43;;
4636;SDS011;2331;48.806;9.140;2022-07-29T03:43:46;4.63;;;3.20;;
4636;SDS011;2331;48.806;9.140;2022-07-29T03:46:15;5.83;;;3.27;;
4636;SDS011;2331;48.806;9.140;2022-07-29T03:48:46;4.00;;;3.30;;
4636;SDS011;2331;48.806;9.140;2022-07-29T03:51:16;4.70;;;3.13;;
4636;SDS011;2331;48.806;9.140;2022-07-29T03:53:44;3.83;;;3.00;;
4636;SDS011;2331;48.806;9.140;2022-07-29T03:56:11;4.40;;;2.97;;
4636;SDS011;2331;48.806;9.140;2022-07-29T03:58:41;4.33;;;3.23;;
4636;SDS011;2331;48.806;9.140;2022-07-29T04:01:09;4.60;;;3.50;;
4636;SDS011;2331;48.806;9.140;2022-07-29T04:03:37;5.63;;;3.70;;
4636;SDS011;2331;48.806;9.140;2022-07-29T04:06:06;5.47;;;3.10;;
4636;SDS011;2331;48.806;9.140;2022-07-29T04:08:33;4.93;;;3.37;;
4636;SDS011;2331;48.806;9.140;2022-07-29T04:11:01;6.70;;;3.20;;
4636;SDS011;2331;48.806;9.140;2022-07-29T04:13:29;4.47;;;3.03;;
4636;SDS011;2331;48.806;9.140;2022-07-29T04:15:56;4.47;;;3.30;;
4636;SDS011;2331;48.806;9.140;2022-07-29T04:18:23;3.83;;;3.20;;
4636;SDS011;2331;48.806;9.140;2022-07-29T04:20:50;4.70;;;3.37;;
4636;SDS011;2331;48.806;9.140;2022-07-29T04:23:17;4.40;;;3.27;;
4636;SDS011;2331;48.806;9.140;2022-07-29T04:25:43;4.73;;;3.60;;
4636;SDS011;2331;48.806;9.140;2022-07-29T04:28:12;5.43;;;3.40;;
4636;SDS011;2331;48.806;9.140;2022-07-29T04:30:38;4.53;;;3.30;;
4636;SDS011;2331;48.806;9.140;2022-07-29T04:33:06;4.63;;;2.90;;
4636;SDS011;2331;48.806;9.140;2022-07-29T04:35:34;4.77;;;3.10;;
4636;SDS011;2331;48.806;9.140;2022-07-29T04:38:02;4.00;;;3.00;;
4636;SDS011;2331;48.806;9.140;2022-07-29T04:40:30;4.13;;;2.97;;
4636;SDS011;2331;48.806;9.140;2022-07-29T04:42:58;4.97;;;3.60;;
4636;SDS011;2331;48.806;9.140;2022-07-29T04:45:26;4.27;;;3.20;;
4636;SDS011;2331;48.806;9.140;2022-07-29T04:47:53;4.60;;;3.27;;
4636;SDS011;2331;48.806;9.140;2022-07-29T04:50:20;5.00;;;3.63;;
4636;SDS011;2331;48.806;9.140;2022-07-29T04:52:47;5.47;;;3.17;;
4636;SDS011;2331;48.806;9.140;2022-07-29T04:55:14;5.70;;;3.50;;
4636;SDS011;2331;48.806;9.140;2022-07-29T04:57:41;4.57;;;3.27;;
4636;SDS011;2331;48.806;9.140;2022-07-29T05:00:08;5.63;;;3.03;;
4636;SDS011;2331;48.806;9.140;2022-07-29T05:02:37;5.40;;;3.50;;
4636;SDS011;2331;48.806;9.140;2022-07-29T05:05:08;4.63;;;3.50;;
4636;SDS011;2331;48.806;9.140;2022-07-29T05:07:58;4.90;;;3.20;;
4636;SDS011;2331;48.806;9.140;2022-07-29T05:10:25;6.10;;;3.27;;
4636;SDS011;2331;48.806;9.140;2022-07-29T05:12:52;4.03;;;2.93;;
4636;SDS011;2331;48.806;9.140;2022-07-29T05:15:18;4.30;;;3.07;;
4636;SDS011;2331;48.806;9.140;2022-07-29T05:17:47;4.60;;;2.77;;
4636;SDS011;2331;48.806;9.140;2022-07-29T05:20:13;4.97;;;3.17;;
4636;SDS011;2331;48.806;9.140;2022-07-29T05:22:40;3.80;;;2.57;;
4636;SDS011;2331;48.806;9.140;2022-07-29T05:25:07;4.77;;;2.80;;
4636;SDS011;2331;48.806;9.140;2022-07-29T05:27:35;4.20;;;3.10;;
4636;SDS011;2331;48.806;9.140;2022-07-29T05:30:02;4.93;;;3.10;;
4636;SDS011;2331;48.806;9.140;2022-07-29T05:32:29;3.93;;;2.70;;
4636;SDS011;2331;48.806;9.140;2022-07-29T05:34:57;3.90;;;2.77;;
4636;SDS011;2331;48.806;9.140;2022-07-29T05:37:24;5.17;;;2.77;;
4636;SDS011;2331;48.806;9.140;2022-07-29T05:39:51;5.67;;;3.33;;
4636;SDS011;2331;48.806;9.140;2022-07-29T05:42:17;5.20;;;2.43;;
4636;SDS011;2331;48.806;9.140;2022-07-29T05:44:44;6.97;;;3.03;;
4636;SDS011;2331;48.806;9.140;2022-07-29T05:47:12;4.07;;;3.07;;
4636;SDS011;2331;48.806;9.140;2022-07-29T05:49:39;4.20;;;2.83;;
4636;SDS011;2331;48.806;9.140;2022-07-29T05:52:07;4.20;;;2.80;;
4636;SDS011;2331;48.806;9.140;2022-07-29T05:54:34;4.70;;;2.93;;
4636;SDS011;2331;48.806;9.140;2022-07-29T05:57:02;4.17;;;3.07;;
4636;SDS011;2331;48.806;9.140;2022-07-29T05:59:29;4.53;;;2.80;;
4636;SDS011;2331;48.806;9.140;2022-07-29T06:01:56;5.50;;;2.97;;
4636;SDS011;2331;48.806;9.140;2022-07-29T06:04:23;5.90;;;3.17;;
4636;SDS011;2331;48.806;9.140;2022-07-29T06:06:49;4.43;;;3.00;;
4636;SDS011;2331;48.806;9.140;2022-07-29T06:09:18;5.37;;;3.60;;
4636;SDS011;2331;48.806;9.140;2022-07-29T06:11:45;4.77;;;3.07;;
4636;SDS011;2331;48.806;9.140;2022-07-29T06:14:11;5.50;;;3.13;;
4636;SDS011;2331;48.806;9.140;2022-07-29T06:16:38;3.90;;;2.90;;
4636;SDS011;2331;48.806;9.140;2022-07-29T06:19:05;4.53;;;3.50;;
4636;SDS011;2331;48.806;9.140;2022-07-29T06:21:32;5.43;;;3.30;;
4636;SDS011;2331;48.806;9.140;2022-07-29T06:23:59;4.57;;;3.63;;
4636;SDS011;2331;48.806;9.140;2022-07-29T06:26:28;4.53;;;3.10;;
4636;SDS011;2331;48.806;9.140;2022-07-29T06:28:55;6.00;;;3.40;;
4636;SDS011;2331;48.806;9.140;2022-07-29T06:31:21;5.07;;;3.53;;
4636;SDS011;2331;48.806;9.140;2022-07-29T06:33:48;4.80;;;3.43;;
4636;SDS011;2331;48.806;9.140;2022-07-29T06:36:15;5.60;;;3.33;;
4636;SDS011;2331;48.806;9.140;2022-07-29T06:38:41;7.73;;;3.50;;
4636;SDS011;2331;48.806;9.140;2022-07-29T06:41:08;6.00;;;3.90;;
4636;SDS011;2331;48.806;9.140;2022-07-29T06:43:39;6.43;;;3.97;;
4636;SDS011;2331;48.806;9.140;2022-07-29T06:46:07;5.93;;;3.77;;
4636;SDS011;2331;48.806;9.140;2022-07-29T06:48:36;7.17;;;3.93;;
4636;SDS011;2331;48.806;9.140;2022-07-29T06:51:03;6.30;;;3.50;;
4636;SDS011;2331;48.806;9.140;2022-07-29T06:53:32;5.20;;;3.60;;
4636;SDS011;2331;48.806;9.140;2022-07-29T06:56:00;5.07;;;3.47;;
4636;SDS011;2331;48.806;9.140;2022-07-29T06:58:28;5.30;;;3.93;;
4636;SDS011;2331;48.806;9.140;2022-07-29T07:00:57;7.90;;;3.93;;
4636;SDS011;2331;48.806;9.140;2022-07-29T07:03:24;7.73;;;4.50;;
4636;SDS011;2331;48.806;9.140;2022-07-29T07:05:51;8.47;;;3.73;;
4636;SDS011;2331;48.806;9.140;2022-07-29T07:08:20;6.20;;;4.03;;
4636;SDS011;2331;48.806;9.140;2022-07-29T07:10:48;6.33;;;3.87;;
4636;SDS011;2331;48.806;9.140;2022-07-29T07:13:15;9.13;;;4.40;;
4636;SDS011;2331;48.806;9.140;2022-07-29T07:15:43;7.63;;;4.20;;
4636;SDS011;2331;48.806;9.140;2022-07-29T07:18:11;9.67;;;4.03;;
4636;SDS011;2331;48.806;9.140;2022-07-29T07:20:38;7.30;;;4.30;;
4636;SDS011;2331;48.806;9.140;2022-07-29T07:23:05;7.30;;;4.67;;
4636;SDS011;2331;48.806;9.140;2022-07-29T07:25:32;9.50;;;4.17;;
4636;SDS011;2331;48.806;9.140;2022-07-29T07:27:59;6.50;;;4.40;;
4636;SDS011;2331;48.806;9.140;2022-07-29T07:30:26;6.40;;;4.10;;
4636;SDS011;2331;48.806;9.140;2022-07-29T07:32:53;4.97;;;3.80;;
4636;SDS011;2331;48.806;9.140;2022-07-29T07:35:22;7.73;;;5.00;;
4636;SDS011;2331;48.806;9.140;2022-07-29T07:37:49;5.37;;;4.40;;
4636;SDS011;2331;48.806;9.140;2022-07-29T07:40:15;5.60;;;4.03;;
4636;SDS011;2331;48.806;9.140;2022-07-29T07:42:42;7.50;;;4.40;;
4636;SDS011;2331;48.806;9.140;2022-07-29T07:45:09;6.67;;;4.00;;
4636;SDS011;2331;48.806;9.140;2022-07-29T07:47:37;5.60;;;4.00;;
4636;SDS011;2331;48.806;9.140;2022-07-29T07:50:05;5.93;;;4.17;;
4636;SDS011;2331;48.806;9.140;2022-07-29T07:52:37;8.60;;;3.87;;
4636;SDS011;2331;48.806;9.140;2022-07-29T07:55:12;7.87;;;3.70;;
4636;SDS011;2331;48.806;9.140;2022-07-29T07:57:39;7.43;;;4.37;;
4636;SDS011;2331;48.806;9.140;2022-07-29T08:00:07;7.20;;;4.33;;
4636;SDS011;2331;48.806;9.140;2022-07-29T08:02:34;6.20;;;4.37;;
4636;SDS011;2331;48.806;9.140;2022-07-29T08:05:01;6.33;;;4.43;;
4636;SDS011;2331;48.806;9.140;2022-07-29T08:07:28;6.40;;;4.43;;
4636;SDS011;2331;48.806;9.140;2022-07-29T08:09:56;8.23;;;5.40;;
4636;SDS011;2331;48.806;9.140;2022-07-29T08:12:23;6.40;;;3.90;;
4636;SDS011;2331;48.806;9.140;2022-07-29T08:14:50;8.37;;;4.70;;
4636;SDS011;2331;48.806;9.140;2022-07-29T08:17:17;6.80;;;4.90;;
4636;SDS011;2331;48.806;9.140;2022-07-29T08:19:43;6.10;;;4.50;;
4636;SDS011;2331;48.806;9.140;2022-07-29T08:22:10;6.57;;;4.47;;
4636;SDS011;2331;48.806;9.140;2022-07-29T08:24:37;7.83;;;5.00;;
4636;SDS011;2331;48.806;9.140;2022-07-29T08:27:13;7.30;;;4.60;;
4636;SDS011;2331;48.806;9.140;2022-07-29T08:29:40;9.10;;;5.10;;
4636;SDS011;2331;48.806;9.140;2022-07-29T08:32:06;7.13;;;4.53;;
4636;SDS011;2331;48.806;9.140;2022-07-29T08:34:33;7.17;;;5.00;;
4636;SDS011;2331;48.806;9.140;2022-07-29T08:37:00;5.90;;;4.20;;
4636;SDS011;2331;48.806;9.140;2022-07-29T08:39:27;8.57;;;4.20;;
4636;SDS011;2331;48.806;9.140;2022-07-29T08:41:53;6.33;;;4.10;;
4636;SDS011;2331;48.806;9.140;2022-07-29T08:44:22;4.50;;;3.80;;
4636;SDS011;2331;48.806;9.140;2022-07-29T08:46:49;9.20;;;4.77;;
4636;SDS011;2331;48.806;9.140;2022-07-29T08:49:16;9.07;;;4.20;;
4636;SDS011;2331;48.806;9.140;2022-07-29T08:51:43;6.17;;;4.60;;
4636;SDS011;2331;48.806;9.140;2022-07-29T08:54:10;7.20;;;4.77;;
4636;SDS011;2331;48.806;9.140;2022-07-29T08:56:40;6.83;;;4.80;;
4636;SDS011;2331;48.806;9.140;2022-07-29T08:59:07;7.37;;;3.90;;
4636;SDS011;2331;48.806;9.140;2022-07-29T09:01:37;5.80;;;4.20;;
4636;SDS011;2331;48.806;9.140;2022-07-29T09:04:05;6.70;;;4.30;;
4636;SDS011;2331;48.806;9.140;2022-07-29T09:06:37;5.60;;;4.00;;
4636;SDS011;2331;48.806;9.140;2022-07-29T09:09:07;8.00;;;4.50;;
4636;SDS011;2331;48.806;9.140;2022-07-29T09:11:34;10.13;;;4.47;;
4636;SDS011;2331;48.806;9.140;2022-07-29T09:14:02;6.20;;;4.30;;
4636;SDS011;2331;48.806;9.140;2022-07-29T09:19:21;7.03;;;4.60;;
4636;SDS011;2331;48.806;9.140;2022-07-29T09:21:49;5.90;;;4.13;;
4636;SDS011;2331;48.806;9.140;2022-07-29T09:24:36;7.93;;;4.30;;
4636;SDS011;2331;48.806;9.140;2022-07-29T09:27:09;6.30;;;4.10;;
4636;SDS011;2331;48.806;9.140;2022-07-29T09:29:37;7.57;;;4.60;;
4636;SDS011;2331;48.806;9.140;2022-07-29T09:32:08;8.40;;;4.90;;
4636;SDS011;2331;48.806;9.140;2022-07-29T09:34:36;7.93;;;4.40;;
4636;SDS011;2331;48.806;9.140;2022-07-29T09:37:03;10.30;;;4.77;;
4636;SDS011;2331;48.806;9.140;2022-07-29T09:39:31;7.93;;;4.93;;
4636;SDS011;2331;48.806;9.140;2022-07-29T09:42:00;8.47;;;5.03;;
4636;SDS011;2331;48.806;9.140;2022-07-29T09:44:40;6.87;;;4.70;;
4636;SDS011;2331;48.806;9.140;2022-07-29T09:47:09;9.40;;;4.30;;
4636;SDS011;2331;48.806;9.140;2022-07-29T09:49:49;8.83;;;4.70;;
4636;SDS011;2331;48.806;9.140;2022-07-29T09:52:18;8.07;;;4.67;;
4636;SDS011;2331;48.806;9.140;2022-07-29T09:54:45;6.40;;;4.60;;
4636;SDS011;2331;48.806;9.140;2022-07-29T09:57:21;8.60;;;4.70;;
4636;SDS011;2331;48.806;9.140;2022-07-29T09:59:55;5.60;;;4.47;;
4636;SDS011;2331;48.806;9.140;2022-07-29T10:02:28;7.27;;;4.83;;
4636;SDS011;2331;48.806;9.140;2022-07-29T10:04:57;7.57;;;5.50;;
4636;SDS011;2331;48.806;9.140;2022-07-29T10:07:24;8.37;;;4.87;;
4636;SDS011;2331;48.806;9.140;2022-07-29T10:09:52;7.43;;;4.80;;
4636;SDS011;2331;48.806;9.140;2022-07-29T10:12:20;8.53;;;4.83;;
4636;SDS011;2331;48.806;9.140;2022-07-29T10:14:48;6.90;;;4.80;;
4636;SDS011;2331;48.806;9.140;2022-07-29T10:17:16;6.50;;;5.10;;
4636;SDS011;2331;48.806;9.140;2022-07-29T10:19:45;6.83;;;5.03;;
4636;SDS011;2331;48.806;9.140;2022-07-29T10:22:13;7.43;;;5.43;;
4636;SDS011;2331;48.806;9.140;2022-07-29T10:24:40;12.17;;;5.00;;
4636;SDS011;2331;48.806;9.140;2022-07-29T10:27:07;10.03;;;5.13;;
4636;SDS011;2331;48.806;9.140;2022-07-29T10:29:34;9.83;;;4.60;;
4636;SDS011;2331;48.806;9.140;2022-07-29T10:32:10;8.30;;;4.83;;
4636;SDS011;2331;48.806;9.140;2022-07-29T10:34:54;5.97;;;5.03;;
4636;SDS011;2331;48.806;9.140;2022-07-29T10:37:33;12.97;;;5.40;;
4636;SDS011;2331;48.806;9.140;2022-07-29T10:40:16;8.57;;;5.43;;
4636;SDS011;2331;48.806;9.140;2022-07-29T10:43:14;6.97;;;4.70;;
4636;SDS011;2331;48.806;9.140;2022-07-29T10:45:45;8.40;;;5.60;;
4636;SDS011;2331;48.806;9.140;2022-07-29T10:48:13;8.30;;;5.03;;
4636;SDS011;2331;48.806;9.140;2022-07-29T10:50:54;10.17;;;5.70;;
4636;SDS011;2331;48.806;9.140;2022-07-29T10:53:22;7.10;;;4.80;;
4636;SDS011;2331;48.806;9.140;2022-07-29T10:55:50;8.13;;;5.03;;
4636;SDS011;2331;48.806;9.140;2022-07-29T10:58:18;7.10;;;5.10;;
4636;SDS011;2331;48.806;9.140;2022-07-29T11:00:46;8.80;;;4.70;;
4636;SDS011;2331;48.806;9.140;2022-07-29T11:06:12;7.33;;;4.80;;
4636;SDS011;2331;48.806;9.140;2022-07-29T11:08:40;10.73;;;4.70;;
4636;SDS011;2331;48.806;9.140;2022-07-29T11:14:03;6.90;;;4.60;;
4636;SDS011;2331;48.806;9.140;2022-07-29T11:19:25;9.93;;;5.10;;
4636;SDS011;2331;48.806;9.140;2022-07-29T11:21:53;10.67;;;5.00;;
4636;SDS011;2331;48.806;9.140;2022-07-29T11:24:21;6.63;;;5.47;;
4636;SDS011;2331;48.806;9.140;2022-07-29T11:27:11;11.93;;;5.03;;
4636;SDS011;2331;48.806;9.140;2022-07-29T11:29:47;7.40;;;4.80;;
4636;SDS011;2331;48.806;9.140;2022-07-29T11:32:16;8.73;;;5.43;;
4636;SDS011;2331;48.806;9.140;2022-07-29T11:34:45;8.20;;;5.10;;
4636;SDS011;2331;48.806;9.140;2022-07-29T11:37:18;6.80;;;5.23;;
4636;SDS011;2331;48.806;9.140;2022-07-29T11:39:47;8.50;;;6.47;;
4636;SDS011;2331;48.806;9.140;2022-07-29T11:45:24;6.50;;;5.20;;
4636;SDS011;2331;48.806;9.140;2022-07-29T11:47:57;6.80;;;4.93;;
4636;SDS011;2331;48.806;9.140;2022-07-29T11:50:33;6.70;;;4.90;;
4636;SDS011;2331;48.806;9.140;2022-07-29T11:53:05;11.00;;;4.70;;
4636;SDS011;2331;48.806;9.140;2022-07-29T11:55:37;11.17;;;6.27;;
4636;SDS011;2331;48.806;9.140;2022-07-29T11:58:05;10.10;;;5.70;;
4636;SDS011;2331;48.806;9.140;2022-07-29T12:00:33;7.77;;;6.13;;
4636;SDS011;2331;48.806;9.140;2022-07-29T12:03:03;9.90;;;6.40;;
4636;SDS011;2331;48.806;9.140;2022-07-29T12:05:32;10.07;;;5.93;;
4636;SDS011;2331;48.806;9.140;2022-07-29T12:08:07;10.37;;;6.10;;
4636;SDS011;2331;48.806;9.140;2022-07-29T12:10:35;9.40;;;6.10;;
4636;SDS011;2331;48.806;9.140;2022-07-29T12:13:02;10.17;;;6.30;;
4636;SDS011;2331;48.806;9.140;2022-07-29T12:15:29;12.50;;;6.33;;
4636;SDS011;2331;48.806;9.140;2022-07-29T12:17:56;7.80;;;5.10;;
4636;SDS011;2331;48.806;9.140;2022-07-29T12:20:24;11.37;;;6.20;;
4636;SDS011;2331;48.806;9.140;2022-07-29T12:22:52;9.30;;;6.27;;
4636;SDS011;2331;48.806;9.140;2022-07-29T12:25:21;11.80;;;6.40;;
4636;SDS011;2331;48.806;9.140;2022-07-29T12:27:57;8.83;;;5.70;;
4636;SDS011;2331;48.806;9.140;2022-07-29T12:30:33;10.80;;;5.80;;
4636;SDS011;2331;48.806;9.140;2022-07-29T12:33:10;8.30;;;5.63;;
4636;SDS011;2331;48.806;9.140;2022-07-29T12:35:39;7.10;;;4.70;;
4636;SDS011;2331;48.806;9.140;2022-07-29T12:38:09;8.50;;;5.53;;
4636;SDS011;2331;48.806;9.140;2022-07-29T12:40:38;9.00;;;5.67;;
4636;SDS011;2331;48.806;9.140;2022-07-29T12:43:06;6.60;;;5.17;;
4636;SDS011;2331;48.806;9.140;2022-07-29T12:45:35;6.83;;;4.90;;
4636;SDS011;2331;48.806;9.140;2022-07-29T12:48:03;10.47;;;5.33;;
4636;SDS011;2331;48.806;9.140;2022-07-29T12:50:30;8.70;;;5.50;;
4636;SDS011;2331;48.806;9.140;2022-07-29T12:53:07;8.53;;;5.33;;
4636;SDS011;2331;48.806;9.140;2022-07-29T12:55:41;10.43;;;5.43;;
4636;SDS011;2331;48.806;9.140;2022-07-29T12:58:09;7.00;;;4.97;;
4636;SDS011;2331;48.806;9.140;2022-07-29T13:00:36;8.57;;;5.53;;
4636;SDS011;2331;48.806;9.140;2022-07-29T13:03:03;6.33;;;4.60;;
4636;SDS011;2331;48.806;9.140;2022-07-29T13:05:39;7.97;;;5.00;;
4636;SDS011;2331;48.806;9.140;2022-07-29T13:08:11;9.70;;;5.47;;
4636;SDS011;2331;48.806;9.140;2022-07-29T13:10:41;7.93;;;4.87;;
4636;SDS011;2331;48.806;9.140;2022-07-29T13:13:08;10.07;;;4.90;;
4636;SDS011;2331;48.806;9.140;2022-07-29T13:15:37;8.33;;;4.87;;
4636;SDS011;2331;48.806;9.140;2022-07-29T13:18:25;7.13;;;4.33;;
4636;SDS011;2331;48.806;9.140;2022-07-29T13:20:52;6.80;;;4.40;;
4636;SDS011;2331;48.806;9.140;2022-07-29T13:23:19;6.40;;;4.50;;
4636;SDS011;2331;48.806;9.140;2022-07-29T13:25:48;5.60;;;4.50;;
4636;SDS011;2331;48.806;9.140;2022-07-29T13:28:15;11.70;;;4.97;;
4636;SDS011;2331;48.806;9.140;2022-07-29T13:30:42;5.97;;;4.47;;
4636;SDS011;2331;48.806;9.140;2022-07-29T13:33:09;6.17;;;4.20;;
4636;SDS011;2331;48.806;9.140;2022-07-29T13:35:36;5.87;;;4.50;;
4636;SDS011;2331;48.806;9.140;2022-07-29T13:38:03;7.27;;;4.63;;
4636;SDS011;2331;48.806;9.140;2022-07-29T13:40:30;12.83;;;4.53;;
4636;SDS011;2331;48.806;9.140;2022-07-29T13:43:00;9.47;;;4.93;;
4636;SDS011;2331;48.806;9.140;2022-07-29T13:45:26;6.40;;;4.57;;
4636;SDS011;2331;48.806;9.140;2022-07-29T13:47:53;4.63;;;3.90;;
4636;SDS011;2331;48.806;9.140;2022-07-29T13:50:20;8.90;;;4.77;;
4636;SDS011;2331;48.806;9.140;2022-07-29T13:52:47;7.40;;;4.67;;
4636;SDS011;2331;48.806;9.140;2022-07-29T13:55:15;7.50;;;4.90;;
4636;SDS011;2331;48.806;9.140;2022-07-29T13:57:42;6.00;;;4.80;;
4636;SDS011;2331;48.806;9.140;2022-07-29T14:00:10;8.97;;;5.30;;
4636;SDS011;2331;48.806;9.140;2022-07-29T14:02:38;6.00;;;4.97;;
4636;SDS011;2331;48.806;9.140;2022-07-29T14:05:05;7.47;;;4.83;;
4636;SDS011;2331;48.806;9.140;2022-07-29T14:07:33;7.73;;;4.53;;
4636;SDS011;2331;48.806;9.140;2022-07-29T14:10:00;11.53;;;4.70;;
4636;SDS011;2331;48.806;9.140;2022-07-29T14:12:26;6.90;;;4.53;;
4636;SDS011;2331;48.806;9.140;2022-07-29T14:14:53;7.40;;;4.90;;
4636;SDS011;2331;48.806;9.140;2022-07-29T14:17:22;6.57;;;4.80;;
4636;SDS011;2331;48.806;9.140;2022-07-29T14:19:48;5.90;;;4.83;;
4636;SDS011;2331;48.806;9.140;2022-07-29T14:22:15;6.40;;;4.47;;
4636;SDS011;2331;48.806;9.140;2022-07-29T14:24:44;6.93;;;4.57;;
4636;SDS011;2331;48.806;9.140;2022-07-29T14:27:11;7.87;;;4.47;;
4636;SDS011;2331;48.806;9.140;2022-07-29T14:29:38;9.47;;;5.20;;
4636;SDS011;2331;48.806;9.140;2022-07-29T14:32:05;8.23;;;4.97;;
4636;SDS011;2331;48.806;9.140;2022-07-29T14:34:33;6.97;;;4.73;;
4636;SDS011;2331;48.806;9.140;2022-07-29T14:37:01;6.30;;;4.53;;
4636;SDS011;2331;48.806;9.140;2022-07-29T14:39:30;7.00;;;5.40;;
4636;SDS011;2331;48.806;9.140;2022-07-29T14:41:57;5.90;;;4.27;;
4636;SDS011;2331;48.806;9.140;2022-07-29T14:44:24;6.50;;;4.93;;
4636;SDS011;2331;48.806;9.140;2022-07-29T14:46:56;10.20;;;4.67;;
4636;SDS011;2331;48.806;9.140;2022-07-29T14:49:27;5.90;;;4.57;;
4636;SDS011;2331;48.806;9.140;2022-07-29T14:51:55;7.53;;;4.30;;
4636;SDS011;2331;48.806;9.140;2022-07-29T14:54:22;7.20;;;4.63;;
4636;SDS011;2331;48.806;9.140;2022-07-29T14:56:49;7.40;;;4.50;;
4636;SDS011;2331;48.806;9.140;2022-07-29T14:59:16;9.40;;;5.00;;
4636;SDS011;2331;48.806;9.140;2022-07-29T15:01:43;7.07;;;4.13;;
4636;SDS011;2331;48.806;9.140;2022-07-29T15:04:10;8.40;;;4.67;;
4636;SDS011;2331;48.806;9.140;2022-07-29T15:06:37;6.57;;;4.53;;
4636;SDS011;2331;48.806;9.140;2022-07-29T15:09:05;8.33;;;4.50;;
4636;SDS011;2331;48.806;9.140;2022-07-29T15:11:32;7.30;;;4.50;;
4636;SDS011;2331;48.806;9.140;2022-07-29T15:13:59;9.23;;;5.00;;
4636;SDS011;2331;48.806;9.140;2022-07-29T15:16:25;8.00;;;4.50;;
4636;SDS011;2331;48.806;9.140;2022-07-29T15:18:52;7.07;;;4.50;;
4636;SDS011;2331;48.806;9.140;2022-07-29T15:21:19;6.13;;;4.50;;
4636;SDS011;2331;48.806;9.140;2022-07-29T15:23:46;6.77;;;4.87;;
4636;SDS011;2331;48.806;9.140;2022-07-29T15:26:14;5.70;;;4.00;;
4636;SDS011;2331;48.806;9.140;2022-07-29T15:28:41;7.10;;;4.10;;
4636;SDS011;2331;48.806;9.140;2022-07-29T15:31:07;5.33;;;4.00;;
4636;SDS011;2331;48.806;9.140;2022-07-29T15:33:35;5.67;;;4.00;;
4636;SDS011;2331;48.806;9.140;2022-07-29T15:36:01;5.10;;;3.20;;
4636;SDS011;2331;48.806;9.140;2022-07-29T15:38:29;6.77;;;3.87;;
4636;SDS011;2331;48.806;9.140;2022-07-29T15:40:56;7.37;;;3.30;;